createdAt,value
2018-03-07T00:01:26.220Z,96.50
2018-03-07T00:03:54.209Z,96.60
2018-03-07T00:06:22.232Z,96.50
2018-03-07T00:08:50.237Z,96.30
2018-03-07T00:11:18.229Z,96.40
2018-03-07T00:13:46.244Z,96.30
2018-03-07T00:16:14.998Z,96.50
2018-03-07T00:18:43.008Z,96.20
2018-03-07T00:21:11.005Z,96.20
2018-03-07T00:23:39.793Z,96.30
2018-03-07T00:26:07.773Z,96.30
2018-03-07T00:28:35.780Z,96.20
2018-03-07T00:31:03.767Z,96.30
2018-03-07T00:33:32.524Z,96.50
2018-03-07T00:36:00.531Z,96.50
2018-03-07T00:38:28.532Z,96.30
2018-03-07T00:40:57.300Z,96.30
2018-03-07T00:43:25.309Z,96.30
2018-03-07T00:45:53.311Z,96.40
2018-03-07T00:48:22.086Z,96.40
2018-03-07T00:50:50.101Z,96.40
2018-03-07T00:53:18.092Z,96.50
2018-03-07T00:55:46.113Z,96.40
2018-03-07T00:58:14.104Z,96.20
2018-03-07T01:00:42.109Z,96.50
2018-03-07T01:03:10.116Z,96.50
2018-03-07T01:05:38.112Z,96.50
2018-03-07T01:08:06.118Z,96.70
2018-03-07T01:10:34.104Z,96.60
2018-03-07T01:13:02.117Z,96.50
2018-03-07T01:15:30.120Z,96.40
2018-03-07T01:17:58.884Z,96.10
2018-03-07T01:20:26.884Z,96.10
2018-03-07T01:22:54.876Z,96.10
2018-03-07T01:25:23.649Z,96.40
2018-03-07T01:27:51.652Z,96.40
2018-03-07T01:30:19.645Z,96.30
2018-03-07T01:32:48.477Z,96.40
2018-03-07T01:35:16.522Z,96.40
2018-03-07T01:37:44.572Z,96.30
2018-03-07T01:40:12.629Z,96.40
2018-03-07T01:42:40.683Z,96.20
2018-03-07T01:45:08.717Z,96.10
2018-03-07T01:47:36.773Z,96.20
2018-03-07T01:50:04.820Z,96.20
2018-03-07T01:52:32.848Z,96.20
2018-03-07T01:55:00.896Z,96.20
2018-03-07T01:57:28.927Z,96.00
2018-03-07T01:59:56.982Z,96.30
2018-03-07T02:02:25.790Z,96.30
2018-03-07T02:04:54.616Z,96.30
2018-03-07T02:07:22.644Z,96.30
2018-03-07T02:09:50.692Z,96.10
2018-03-07T02:12:18.868Z,96.30
2018-03-07T02:14:46.906Z,96.30
2018-03-07T02:17:14.958Z,96.40
2018-03-07T02:19:42.992Z,96.60
2018-03-07T02:22:11.045Z,96.70
2018-03-07T02:24:39.080Z,96.60
2018-03-07T02:27:07.142Z,96.70
2018-03-07T02:29:35.936Z,96.70
2018-03-07T02:32:04.761Z,96.70
2018-03-07T02:34:32.792Z,96.70
2018-03-07T02:37:00.848Z,96.80
2018-03-07T02:39:28.885Z,96.80
2018-03-07T02:41:57.713Z,96.90
2018-03-07T02:44:25.758Z,96.80
2018-03-07T02:46:53.804Z,96.70
2018-03-07T02:49:21.845Z,96.80
2018-03-07T02:51:50.670Z,96.70
2018-03-07T02:54:18.701Z,96.70
2018-03-07T02:56:46.753Z,96.70
2018-03-07T02:59:14.790Z,96.80
2018-03-07T03:01:43.608Z,97.00
2018-03-07T03:04:11.668Z,96.90
2018-03-07T03:06:39.704Z,96.80
2018-03-07T03:09:07.757Z,96.50
2018-03-07T03:11:36.553Z,96.90
2018-03-07T03:14:05.375Z,96.80
2018-03-07T03:16:33.408Z,96.80
2018-03-07T03:19:01.462Z,96.80
2018-03-07T03:21:29.504Z,96.80
2018-03-07T03:23:58.331Z,96.80
2018-03-07T03:26:26.376Z,96.70
2018-03-07T03:28:54.412Z,96.80
2018-03-07T03:31:22.466Z,97.00
2018-03-07T03:33:50.505Z,96.90
2018-03-07T03:36:18.555Z,96.90
2018-03-07T03:38:46.587Z,97.30
2018-03-07T03:41:14.640Z,97.40
2018-03-07T03:43:42.694Z,97.50
2018-03-07T03:46:10.744Z,97.60
2018-03-07T03:48:38.788Z,97.60
2018-03-07T03:51:06.822Z,97.50
2018-03-07T03:53:36.065Z,97.30
2018-03-07T03:56:04.092Z,97.30
2018-03-07T03:58:32.149Z,97.20
2018-03-07T04:01:00.173Z,97.30
2018-03-07T04:03:28.219Z,97.20
2018-03-07T04:05:56.253Z,97.30
2018-03-07T04:08:25.077Z,96.90
2018-03-07T04:10:53.109Z,96.90
2018-03-07T04:13:22.672Z,96.90
2018-03-07T04:15:50.713Z,96.90
2018-03-07T04:18:18.768Z,96.80
2018-03-07T04:20:46.808Z,96.90
2018-03-07T04:23:15.729Z,96.90
2018-03-07T04:25:43.775Z,96.80
2018-03-07T04:28:11.813Z,96.80
2018-03-07T04:30:39.868Z,96.80
2018-03-07T04:33:08.672Z,96.90
2018-03-07T04:35:36.736Z,96.80
2018-03-07T04:38:04.772Z,96.90
2018-03-07T04:40:32.820Z,96.90
2018-03-07T04:43:01.636Z,96.70
2018-03-07T04:45:29.672Z,96.70
2018-03-07T04:47:57.724Z,96.80
2018-03-07T04:50:25.757Z,96.90
2018-03-07T04:52:54.581Z,97.10
2018-03-07T04:55:23.376Z,96.70
2018-03-07T04:57:52.193Z,96.80
2018-03-07T05:00:20.253Z,96.70
2018-03-07T05:02:49.068Z,96.90
2018-03-07T05:05:17.132Z,96.90
2018-03-07T05:07:45.936Z,96.90
2018-03-07T05:10:14.751Z,96.90
2018-03-07T05:12:43.556Z,96.90
2018-03-07T05:15:12.369Z,96.80
2018-03-07T05:17:40.406Z,96.80
2018-03-07T05:20:08.452Z,96.70
2018-03-07T05:22:36.516Z,96.90
2018-03-07T05:25:04.553Z,96.90
2018-03-07T05:27:32.609Z,97.00
2018-03-07T05:30:01.091Z,96.90
2018-03-07T05:32:29.872Z,96.90
2018-03-07T05:34:57.905Z,97.20
2018-03-07T05:37:25.957Z,97.00
2018-03-07T05:39:53.998Z,96.90
2018-03-07T05:42:22.060Z,96.80
2018-03-07T05:44:51.108Z,96.60
2018-03-07T05:47:19.925Z,97.00
2018-03-07T05:49:47.965Z,97.00
2018-03-07T05:52:16.034Z,97.10
2018-03-07T05:54:44.064Z,97.70
2018-03-07T05:57:12.120Z,97.90
2018-03-07T05:59:40.160Z,97.60
2018-03-07T06:02:08.212Z,97.20
2018-03-07T06:04:37.033Z,97.00
2018-03-07T06:07:05.073Z,97.00
2018-03-07T06:09:33.997Z,96.90
2018-03-07T06:12:02.801Z,96.80
2018-03-07T06:14:31.616Z,97.30
2018-03-07T06:16:59.659Z,97.30
2018-03-07T06:19:27.709Z,97.30
2018-03-07T06:21:55.769Z,97.20
2018-03-07T06:24:23.805Z,97.00
2018-03-07T06:26:51.869Z,97.10
2018-03-07T06:29:19.916Z,97.10
2018-03-07T06:31:48.737Z,96.90
2018-03-07T06:34:16.795Z,96.80
2018-03-07T06:36:45.616Z,96.70
2018-03-07T06:39:13.650Z,96.70
2018-03-07T06:41:41.702Z,96.80
2018-03-07T06:44:09.753Z,96.80
2018-03-07T06:46:37.794Z,96.80
2018-03-07T06:49:05.852Z,97.20
2018-03-07T06:51:33.877Z,97.00
2018-03-07T06:54:02.717Z,97.70
2018-03-07T06:56:30.764Z,97.60
2018-03-07T06:58:58.797Z,97.70
2018-03-07T07:01:26.853Z,97.50
2018-03-07T07:03:55.648Z,96.60
2018-03-07T07:06:24.469Z,96.10
2018-03-07T07:08:52.505Z,96.10
2018-03-07T07:11:20.576Z,95.60
2018-03-07T07:13:48.631Z,95.30
2018-03-07T07:16:17.453Z,94.60
2018-03-07T07:18:45.509Z,94.60
2018-03-07T07:21:13.545Z,94.70
2018-03-07T07:23:41.604Z,94.40
2018-03-07T07:26:09.632Z,94.20
2018-03-07T07:28:38.448Z,93.80
2018-03-07T07:31:06.483Z,93.70
2018-03-07T07:33:34.534Z,93.50
2018-03-07T07:36:02.582Z,93.60
2018-03-07T07:38:30.628Z,93.90
2018-03-07T07:40:58.680Z,93.60
2018-03-07T07:43:26.766Z,93.30
2018-03-07T07:45:54.785Z,93.40
2018-03-07T07:48:22.824Z,93.40
2018-03-07T07:50:50.880Z,93.20
2018-03-07T07:53:18.925Z,92.60
2018-03-07T07:55:46.986Z,91.70
2018-03-07T07:58:15.033Z,91.50
2018-03-07T08:00:43.125Z,91.70
2018-03-07T08:03:11.153Z,91.20
2018-03-07T08:05:39.186Z,90.00
2018-03-07T08:08:08.005Z,90.30
2018-03-07T08:10:36.040Z,90.20
2018-03-07T08:13:04.092Z,90.00
2018-03-07T08:15:32.149Z,89.40
2018-03-07T08:18:00.960Z,88.20
2018-03-07T08:20:29.769Z,85.20
2018-03-07T08:22:57.809Z,85.00
2018-03-07T08:25:25.870Z,85.30
2018-03-07T08:27:53.925Z,86.40
2018-03-07T08:30:21.981Z,85.90
2018-03-07T08:32:50.807Z,83.60
2018-03-07T08:35:18.861Z,83.50
2018-03-07T08:37:47.684Z,81.80
2018-03-07T08:40:16.490Z,81.30
2018-03-07T08:42:45.301Z,79.40
2018-03-07T08:45:13.329Z,79.30
2018-03-07T08:47:41.372Z,77.30
2018-03-07T08:50:09.405Z,76.30
2018-03-07T08:52:37.456Z,76.70
2018-03-07T08:55:05.500Z,76.90
2018-03-07T08:57:34.296Z,75.80
2018-03-07T09:00:03.104Z,72.90
2018-03-07T09:02:31.900Z,73.20
2018-03-07T09:05:00.713Z,74.30
2018-03-07T09:07:28.737Z,74.30
2018-03-07T09:09:56.802Z,74.20
2018-03-07T09:12:24.853Z,73.60
2018-03-07T09:14:53.657Z,73.30
2018-03-07T09:17:22.471Z,73.80
2018-03-07T09:19:50.500Z,73.80
2018-03-07T09:22:18.553Z,74.40
2018-03-07T09:24:46.586Z,75.70
2018-03-07T09:27:14.628Z,74.30
2018-03-07T09:29:42.656Z,73.70
2018-03-07T09:32:10.705Z,74.00
2018-03-07T09:34:38.757Z,71.80
2018-03-07T09:37:06.794Z,72.30
2018-03-07T09:39:34.845Z,73.00
2018-03-07T09:42:02.873Z,71.90
2018-03-07T09:44:30.913Z,71.80
2018-03-07T09:46:58.932Z,71.30
2018-03-07T09:49:26.977Z,71.30
2018-03-07T09:51:55.039Z,71.80
2018-03-07T09:54:23.820Z,73.00
2018-03-07T09:56:52.645Z,73.90
2018-03-07T09:59:21.432Z,73.00
2018-03-07T10:01:50.253Z,73.20
2018-03-07T10:04:18.284Z,73.30
2018-03-07T10:06:46.327Z,74.00
2018-03-07T10:09:14.357Z,73.60
2018-03-07T10:11:42.404Z,74.60
2018-03-07T10:14:10.428Z,73.00
2018-03-07T10:16:38.474Z,72.90
2018-03-07T10:19:06.518Z,73.80
2018-03-07T10:21:35.329Z,72.90
2018-03-07T10:24:03.376Z,72.90
2018-03-07T10:26:31.412Z,72.60
2018-03-07T10:28:59.453Z,73.70
2018-03-07T10:31:27.511Z,72.30
2018-03-07T10:33:55.641Z,72.80
2018-03-07T10:36:24.440Z,70.80
2018-03-07T10:38:53.248Z,68.20
2018-03-07T10:41:21.301Z,68.20
2018-03-07T10:43:49.361Z,66.90
2018-03-07T10:46:17.397Z,66.90
2018-03-07T10:48:46.217Z,67.10
2018-03-07T10:51:14.259Z,66.90
2018-03-07T10:53:43.054Z,69.00
2018-03-07T10:56:11.096Z,69.00
2018-03-07T10:58:39.125Z,69.00
2018-03-07T11:01:07.189Z,67.10
2018-03-07T11:03:35.233Z,68.00
2018-03-07T11:06:03.264Z,68.30
2018-03-07T11:08:31.309Z,68.70
2018-03-07T11:10:59.344Z,69.90
2018-03-07T11:13:27.393Z,68.20
2018-03-07T11:15:55.444Z,68.10
2018-03-07T11:18:23.499Z,67.70
2018-03-07T11:20:51.522Z,67.30
2018-03-07T11:23:19.557Z,66.90
2018-03-07T11:25:47.604Z,66.90
2018-03-07T11:28:15.628Z,67.30
2018-03-07T11:30:43.668Z,66.10
2018-03-07T11:33:11.717Z,64.60
2018-03-07T11:35:40.500Z,65.10
2018-03-07T11:38:08.553Z,64.90
2018-03-07T11:40:36.573Z,64.90
2018-03-07T11:43:05.383Z,63.20
2018-03-07T11:45:34.168Z,62.00
2018-03-07T11:48:02.212Z,62.00
2018-03-07T11:50:30.238Z,61.90
2018-03-07T11:52:58.285Z,61.80
2018-03-07T11:55:26.335Z,61.80
2018-03-07T11:57:54.356Z,60.00
2018-03-07T12:00:22.409Z,58.00
2018-03-07T12:02:50.448Z,57.40
2018-03-07T12:05:20.004Z,57.60
2018-03-07T12:07:48.053Z,57.40
2018-03-07T12:10:16.078Z,58.90
2018-03-07T12:12:44.117Z,58.80
2018-03-07T12:15:12.140Z,59.60
2018-03-07T12:17:40.208Z,59.80
2018-03-07T12:20:08.990Z,60.40
2018-03-07T12:22:37.036Z,60.40
2018-03-07T12:25:05.085Z,59.50
2018-03-07T12:27:33.137Z,59.60
2018-03-07T12:30:01.177Z,59.60
2018-03-07T12:32:29.206Z,59.80
2018-03-07T12:34:57.253Z,59.70
2018-03-07T12:37:25.276Z,58.40
2018-03-07T12:39:53.338Z,58.30
2018-03-07T12:42:21.383Z,58.20
2018-03-07T12:44:49.420Z,57.20
2018-03-07T12:47:17.795Z,56.40
2018-03-07T12:49:45.833Z,57.40
2018-03-07T12:52:13.877Z,54.10
2018-03-07T12:54:42.675Z,54.80
2018-03-07T12:57:10.717Z,54.80
2018-03-07T12:59:38.745Z,50.80
2018-03-07T13:02:06.788Z,48.90
2018-03-07T13:04:34.841Z,46.50
2018-03-07T13:07:03.637Z,44.40
2018-03-07T13:09:32.449Z,43.00
2018-03-07T13:12:00.489Z,43.00
2018-03-07T13:14:28.532Z,44.10
2018-03-07T13:16:56.568Z,44.80
2018-03-07T13:19:24.617Z,46.40
2018-03-07T13:21:52.664Z,47.40
2018-03-07T13:24:21.474Z,49.40
2018-03-07T13:26:49.537Z,49.20
2018-03-07T13:29:17.566Z,50.10
2018-03-07T13:31:45.609Z,50.00
2018-03-07T13:34:14.421Z,48.70
2018-03-07T13:36:42.453Z,48.60
2018-03-07T13:39:10.509Z,48.30
2018-03-07T13:41:38.532Z,48.60
2018-03-07T13:44:08.085Z,47.40
2018-03-07T13:46:36.873Z,46.70
2018-03-07T13:49:05.686Z,45.90
2018-03-07T13:51:34.493Z,45.90
2018-03-07T13:54:02.520Z,45.90
2018-03-07T13:56:30.556Z,44.40
2018-03-07T13:58:59.352Z,44.10
2018-03-07T14:01:28.169Z,44.70
2018-03-07T14:03:56.208Z,44.60
2018-03-07T14:06:24.237Z,44.20
2018-03-07T14:08:52.285Z,45.60
2018-03-07T14:11:20.314Z,45.90
2018-03-07T14:13:48.381Z,45.90
2018-03-07T14:16:16.417Z,45.80
2018-03-07T14:18:44.466Z,44.60
2018-03-07T14:21:12.484Z,45.20
2018-03-07T14:23:40.533Z,44.70
2018-03-07T14:26:08.552Z,44.90
2018-03-07T14:28:36.600Z,45.30
2018-03-07T14:31:04.640Z,44.20
2018-03-07T14:33:32.678Z,44.80
2018-03-07T14:36:00.717Z,44.00
2018-03-07T14:38:29.509Z,45.30
2018-03-07T14:40:57.561Z,45.10
2018-03-07T14:43:25.584Z,43.40
2018-03-07T14:45:54.397Z,41.20
2018-03-07T14:48:23.209Z,41.40
2018-03-07T14:50:51.243Z,41.40
2018-03-07T14:53:19.295Z,39.30
2018-03-07T14:55:47.330Z,39.50
2018-03-07T14:58:16.149Z,39.80
2018-03-07T15:00:44.945Z,39.00
2018-03-07T15:03:13.012Z,39.00
2018-03-07T15:05:41.045Z,38.90
2018-03-07T15:08:09.094Z,39.40
2018-03-07T15:10:37.893Z,39.30
2018-03-07T15:13:06.713Z,39.80
2018-03-07T15:15:34.736Z,39.70
2018-03-07T15:18:02.788Z,40.10
2018-03-07T15:20:30.813Z,39.70
2018-03-07T15:22:58.865Z,41.00
2018-03-07T15:25:26.893Z,38.90
2018-03-07T15:27:54.941Z,39.90
2018-03-07T15:30:22.977Z,40.20
2018-03-07T15:32:51.797Z,40.20
2018-03-07T15:35:19.824Z,41.00
2018-03-07T15:37:47.874Z,40.10
2018-03-07T15:40:15.907Z,41.20
2018-03-07T15:42:43.940Z,41.20
2018-03-07T15:45:11.969Z,41.50
2018-03-07T15:47:40.015Z,41.90
2018-03-07T15:50:08.040Z,41.80
2018-03-07T15:52:36.088Z,42.30
2018-03-07T15:55:04.108Z,42.40
2018-03-07T15:57:32.193Z,42.40
2018-03-07T16:00:00.184Z,42.30
2018-03-07T16:02:28.224Z,43.10
2018-03-07T16:04:56.268Z,42.80
2018-03-07T16:07:25.057Z,42.90
2018-03-07T16:09:53.129Z,42.90
2018-03-07T16:12:21.184Z,42.80
2018-03-07T16:14:49.226Z,42.30
2018-03-07T16:17:18.016Z,43.80
2018-03-07T16:19:46.832Z,43.70
2018-03-07T16:22:15.643Z,43.00
2018-03-07T16:24:43.709Z,42.90
2018-03-07T16:27:12.509Z,42.90
2018-03-07T16:29:41.321Z,43.60
2018-03-07T16:32:10.133Z,43.20
2018-03-07T16:34:38.184Z,43.10
2018-03-07T16:37:06.206Z,42.40
2018-03-07T16:39:34.252Z,42.50
2018-03-07T16:42:02.277Z,42.20
2018-03-07T16:44:30.321Z,42.20
2018-03-07T16:46:58.349Z,42.50
2018-03-07T16:49:26.692Z,43.00
2018-03-07T16:51:54.733Z,43.30
2018-03-07T16:54:22.777Z,43.20
2018-03-07T16:56:51.605Z,44.20
2018-03-07T16:59:19.676Z,44.20
2018-03-07T17:01:47.726Z,44.40
2018-03-07T17:04:15.761Z,45.00
2018-03-07T17:06:43.800Z,45.00
2018-03-07T17:09:11.849Z,45.60
2018-03-07T17:11:39.889Z,45.40
2018-03-07T17:14:08.696Z,45.50
2018-03-07T17:16:36.716Z,45.50
2018-03-07T17:19:04.761Z,45.80
2018-03-07T17:21:32.788Z,46.00
2018-03-07T17:24:00.834Z,45.80
2018-03-07T17:26:28.886Z,45.80
2018-03-07T17:28:56.909Z,45.70
2018-03-07T17:31:24.961Z,45.60
2018-03-07T17:33:53.757Z,45.80
2018-03-07T17:36:21.835Z,46.20
2018-03-07T17:38:49.881Z,45.90
2018-03-07T17:41:17.924Z,45.80
2018-03-07T17:43:46.730Z,46.30
2018-03-07T17:46:14.761Z,46.20
2018-03-07T17:48:42.818Z,46.10
2018-03-07T17:51:10.841Z,46.30
2018-03-07T17:53:38.888Z,46.50
2018-03-07T17:56:06.983Z,46.40
2018-03-07T17:58:34.985Z,46.50
2018-03-07T18:01:03.057Z,46.80
2018-03-07T18:03:31.853Z,48.60
2018-03-07T18:05:59.904Z,48.50
2018-03-07T18:08:27.934Z,47.10
2018-03-07T18:10:55.986Z,47.00
2018-03-07T18:13:24.036Z,47.20
2018-03-07T18:15:52.079Z,47.60
2018-03-07T18:18:20.134Z,47.90
2018-03-07T18:20:48.173Z,47.90
2018-03-07T18:23:16.233Z,48.10
2018-03-07T18:25:44.261Z,48.30
2018-03-07T18:28:13.078Z,48.80
2018-03-07T18:30:41.125Z,48.80
2018-03-07T18:33:09.148Z,48.90
2018-03-07T18:35:37.201Z,48.80
2018-03-07T18:38:05.988Z,48.90
2018-03-07T18:40:34.040Z,48.80
2018-03-07T18:43:02.068Z,49.10
2018-03-07T18:45:30.104Z,48.80
2018-03-07T18:47:58.143Z,49.70
2018-03-07T18:50:26.179Z,49.70
2018-03-07T18:52:54.195Z,49.50
2018-03-07T18:55:22.285Z,49.80
2018-03-07T18:57:50.313Z,49.40
2018-03-07T19:00:18.367Z,49.30
2018-03-07T19:02:47.165Z,50.00
2018-03-07T19:05:15.993Z,50.10
2018-03-07T19:07:44.041Z,50.10
2018-03-07T19:10:12.836Z,50.10
2018-03-07T19:12:40.889Z,49.60
2018-03-07T19:15:08.909Z,49.70
2018-03-07T19:17:37.722Z,49.60
2018-03-07T19:20:06.513Z,50.30
2018-03-07T19:22:35.323Z,49.40
2018-03-07T19:25:04.150Z,49.40
2018-03-07T19:27:32.177Z,49.30
2018-03-07T19:30:00.216Z,49.40
2018-03-07T19:32:28.253Z,49.40
2018-03-07T19:34:56.303Z,49.70
2018-03-07T19:37:24.320Z,50.20
2018-03-07T19:39:52.373Z,50.50
2018-03-07T19:42:20.401Z,50.60
2018-03-07T19:44:49.216Z,51.50
2018-03-07T19:47:18.054Z,50.90
2018-03-07T19:49:46.084Z,50.90
2018-03-07T19:52:14.896Z,52.20
2018-03-07T19:54:43.693Z,51.20
2018-03-07T19:57:12.505Z,51.90
2018-03-07T19:59:41.322Z,51.90
2018-03-07T20:02:09.341Z,51.80
2018-03-07T20:04:37.385Z,52.00
2018-03-07T20:07:05.413Z,52.20
2018-03-07T20:09:33.452Z,52.20
2018-03-07T20:12:01.481Z,52.20
2018-03-07T20:14:29.525Z,52.20
2018-03-07T20:16:57.569Z,52.20
2018-03-07T20:19:25.624Z,52.70
2018-03-07T20:21:53.650Z,52.90
2018-03-07T20:24:22.445Z,53.10
2018-03-07T20:26:50.489Z,53.00
2018-03-07T20:29:18.545Z,53.30
2018-03-07T20:31:46.629Z,53.50
2018-03-07T20:34:14.652Z,53.80
2018-03-07T20:36:42.705Z,54.10
2018-03-07T20:39:10.757Z,54.20
2018-03-07T20:41:39.551Z,54.70
2018-03-07T20:44:08.359Z,55.70
2018-03-07T20:46:37.152Z,55.40
2018-03-07T20:49:05.973Z,55.90
2018-03-07T20:51:34.762Z,55.90
2018-03-07T20:54:03.573Z,56.10
2018-03-07T20:56:32.393Z,56.20
2018-03-07T20:59:00.424Z,56.10
2018-03-07T21:01:29.461Z,56.40
2018-03-07T21:03:58.264Z,57.00
2018-03-07T21:06:27.073Z,57.50
2018-03-07T21:08:56.057Z,57.50
2018-03-07T21:11:24.877Z,58.50
2018-03-07T21:13:53.675Z,58.40
2018-03-07T21:16:22.602Z,58.60
2018-03-07T21:18:50.638Z,58.40
2018-03-07T21:21:18.684Z,58.70
2018-03-07T21:23:46.719Z,59.20
2018-03-07T21:26:15.528Z,59.70
2018-03-07T21:28:44.320Z,60.00
2018-03-07T21:31:13.137Z,60.10
2018-03-07T21:33:41.928Z,60.60
2018-03-07T21:36:10.746Z,60.80
2018-03-07T21:38:38.826Z,60.70
2018-03-07T21:41:06.857Z,61.00
2018-03-07T21:43:35.909Z,61.30
2018-03-07T21:46:04.734Z,62.20
2018-03-07T21:48:32.775Z,62.20
2018-03-07T21:51:00.801Z,61.90
2018-03-07T21:53:28.844Z,62.40
2018-03-07T21:55:56.897Z,62.60
2018-03-07T21:58:24.916Z,62.80
2018-03-07T22:00:52.965Z,62.90
2018-03-07T22:03:21.001Z,63.20
2018-03-07T22:05:49.820Z,62.90
2018-03-07T22:08:17.857Z,63.00
2018-03-07T22:10:45.908Z,62.90
2018-03-07T22:13:13.957Z,62.80
2018-03-07T22:15:41.985Z,63.10
2018-03-07T22:18:10.039Z,63.00
2018-03-07T22:20:38.065Z,62.30
2018-03-07T22:23:06.109Z,62.50
2018-03-07T22:25:34.141Z,63.00
2018-03-07T22:28:02.180Z,62.50
2018-03-07T22:30:30.214Z,62.10
2018-03-07T22:32:58.253Z,62.00
2018-03-07T22:35:26.299Z,61.60
2018-03-07T22:37:55.101Z,61.80
2018-03-07T22:40:23.156Z,61.70
2018-03-07T22:42:51.227Z,62.20
2018-03-07T22:45:20.087Z,61.30
2018-03-07T22:47:48.121Z,61.20
2018-03-07T22:50:16.188Z,61.50
2018-03-07T22:52:44.224Z,61.60
2018-03-07T22:55:13.037Z,60.60
2018-03-07T22:57:41.057Z,60.60
2018-03-07T23:00:14.708Z,61.00
2018-03-07T23:02:43.492Z,61.70
2018-03-07T23:05:11.545Z,60.90
2018-03-07T23:07:39.571Z,61.00
2018-03-07T23:10:07.661Z,61.00
2018-03-07T23:12:35.671Z,61.10
2018-03-07T23:15:03.697Z,61.20
2018-03-07T23:17:31.763Z,61.40
2018-03-07T23:19:59.781Z,61.30
2018-03-07T23:22:27.833Z,61.60
2018-03-07T23:24:55.865Z,61.40
2018-03-07T23:27:24.672Z,61.60
2018-03-07T23:29:53.485Z,61.60
2018-03-07T23:32:22.327Z,61.60
2018-03-07T23:34:50.373Z,61.60
2018-03-07T23:37:18.469Z,61.50
2018-03-07T23:39:46.533Z,61.50
2018-03-07T23:42:15.346Z,62.70
2018-03-07T23:44:44.144Z,62.60
2018-03-07T23:47:12.191Z,62.50
2018-03-07T23:49:40.328Z,62.30
2018-03-07T23:52:08.348Z,62.70
2018-03-07T23:54:36.391Z,63.00
2018-03-07T23:57:04.433Z,63.10
2018-03-07T23:59:32.472Z,63.70
